createdAt,value
2023-08-12T00:01:11.849Z,53.15
2023-08-12T00:03:43.112Z,53.63
2023-08-12T00:06:11.909Z,53.31
2023-08-12T00:08:41.092Z,53.35
2023-08-12T00:11:09.880Z,53.20
2023-08-12T00:13:38.607Z,52.86
2023-08-12T00:16:10.054Z,53.14
2023-08-12T00:18:38.748Z,53.59
2023-08-12T00:21:10.989Z,53.30
2023-08-12T00:23:41.571Z,53.30
2023-08-12T00:26:10.665Z,53.91
2023-08-12T00:28:39.398Z,53.61
2023-08-12T00:31:08.116Z,53.85
2023-08-12T00:33:37.157Z,53.41
2023-08-12T00:36:06.193Z,53.27
2023-08-12T00:38:36.192Z,53.22
2023-08-12T00:41:05.894Z,53.07
2023-08-12T00:43:34.581Z,52.63
2023-08-12T00:46:03.763Z,53.15
2023-08-12T00:48:34.592Z,53.27
2023-08-12T00:51:04.485Z,53.26
2023-08-12T00:53:33.675Z,52.85
2023-08-12T00:56:03.881Z,53.84
2023-08-12T00:58:32.856Z,53.79
2023-08-12T01:01:02.538Z,54.42
2023-08-12T01:03:31.344Z,54.38
2023-08-12T01:06:00.141Z,54.08
2023-08-12T01:08:31.831Z,54.42
2023-08-12T01:11:07.760Z,54.83
2023-08-12T01:13:44.657Z,54.71
2023-08-12T01:16:15.459Z,54.68
2023-08-12T01:18:44.307Z,54.13
2023-08-12T01:21:18.609Z,54.34
2023-08-12T01:23:49.382Z,54.52
2023-08-12T01:26:18.136Z,54.99
2023-08-12T01:28:47.130Z,54.49
2023-08-12T01:31:21.526Z,54.71
2023-08-12T01:33:55.170Z,54.27
2023-08-12T01:36:23.955Z,54.74
2023-08-12T01:38:55.984Z,54.87
2023-08-12T01:41:25.616Z,55.26
2023-08-12T01:43:54.796Z,54.99
2023-08-12T01:46:24.228Z,55.38
2023-08-12T01:48:54.211Z,55.56
2023-08-12T01:51:23.190Z,55.20
2023-08-12T01:53:51.864Z,55.68
2023-08-12T01:56:21.952Z,59.21
2023-08-12T01:58:51.067Z,55.96
2023-08-12T02:01:19.796Z,59.02
2023-08-12T02:03:48.912Z,58.13
2023-08-12T02:06:17.840Z,60.34
2023-08-12T02:08:46.902Z,58.90
2023-08-12T02:11:15.932Z,58.68
2023-08-12T02:13:46.026Z,57.25
2023-08-12T02:16:14.737Z,57.51
2023-08-12T02:18:43.803Z,56.95
2023-08-12T02:21:12.528Z,57.23
2023-08-12T02:23:41.286Z,56.63
2023-08-12T02:26:10.597Z,56.57
2023-08-12T02:28:39.297Z,56.77
2023-08-12T02:31:09.329Z,57.09
2023-08-12T02:33:38.333Z,56.71
2023-08-12T02:36:07.291Z,56.77
2023-08-12T02:38:36.025Z,57.18
2023-08-12T02:41:07.354Z,56.91
2023-08-12T02:43:36.401Z,57.53
2023-08-12T02:46:05.378Z,58.19
2023-08-12T02:48:35.460Z,57.98
2023-08-12T02:51:04.382Z,58.12
2023-08-12T02:53:33.414Z,58.16
2023-08-12T02:56:02.093Z,58.63
2023-08-12T02:58:30.947Z,58.02
2023-08-12T03:01:00.084Z,59.09
2023-08-12T03:03:28.789Z,59.18
2023-08-12T03:05:58.837Z,58.98
2023-08-12T03:08:28.171Z,59.66
2023-08-12T03:11:01.590Z,59.94
2023-08-12T03:13:30.780Z,60.08
2023-08-12T03:15:59.749Z,59.38
2023-08-12T03:18:28.513Z,59.86
2023-08-12T03:20:59.137Z,60.12
2023-08-12T03:23:29.189Z,59.45
2023-08-12T03:25:59.087Z,59.29
2023-08-12T03:28:27.873Z,59.64
2023-08-12T03:30:56.716Z,60.03
2023-08-12T03:33:26.062Z,60.32
2023-08-12T03:35:55.003Z,60.03
2023-08-12T03:38:25.352Z,60.51
2023-08-12T03:40:55.131Z,59.89
2023-08-12T03:43:23.986Z,60.09
2023-08-12T03:45:52.974Z,59.92
2023-08-12T03:48:22.202Z,60.17
2023-08-12T03:50:51.355Z,60.32
2023-08-12T03:53:20.090Z,60.48
2023-08-12T03:55:50.495Z,60.51
2023-08-12T03:58:19.388Z,60.59
2023-08-12T04:00:48.595Z,59.89
2023-08-12T04:03:17.976Z,60.27
2023-08-12T04:05:50.961Z,60.14
2023-08-12T04:08:20.823Z,60.11
2023-08-12T04:10:51.072Z,60.60
2023-08-12T04:13:22.414Z,60.20
2023-08-12T04:15:52.093Z,59.89
2023-08-12T04:18:21.196Z,59.87
2023-08-12T04:20:52.217Z,59.64
2023-08-12T04:23:21.189Z,59.76
2023-08-12T04:25:51.469Z,60.10
2023-08-12T04:28:20.669Z,60.22
2023-08-12T04:30:51.906Z,58.52
2023-08-12T04:33:22.087Z,59.08
2023-08-12T04:35:51.274Z,59.32
2023-08-12T04:38:20.752Z,59.42
2023-08-12T04:40:51.224Z,59.78
2023-08-12T04:43:20.318Z,59.73
2023-08-12T04:45:49.993Z,59.26
2023-08-12T04:48:20.111Z,59.19
2023-08-12T04:50:48.792Z,59.34
2023-08-12T04:53:19.531Z,59.12
2023-08-12T04:55:53.406Z,59.15
2023-08-12T04:58:22.087Z,58.62
2023-08-12T05:00:53.220Z,58.61
2023-08-12T05:03:24.319Z,58.60
2023-08-12T05:05:54.274Z,56.34
2023-08-12T05:08:23.707Z,55.94
2023-08-12T05:10:53.977Z,53.55
2023-08-12T05:13:24.683Z,51.65
2023-08-12T05:15:53.721Z,49.53
2023-08-12T05:18:24.280Z,47.53
2023-08-12T05:20:54.229Z,46.42
2023-08-12T05:23:23.090Z,45.26
2023-08-12T05:28:39.829Z,42.74
2023-08-12T05:31:08.513Z,41.97
2023-08-12T05:33:37.251Z,41.29
2023-08-12T05:36:06.545Z,40.74
2023-08-12T05:38:35.247Z,40.95
2023-08-12T05:41:08.387Z,41.13
2023-08-12T05:43:37.414Z,41.32
2023-08-12T05:46:06.213Z,42.14
2023-08-12T05:48:35.003Z,41.90
2023-08-12T05:51:04.029Z,43.13
2023-08-12T05:53:33.256Z,42.88
2023-08-12T05:56:02.225Z,43.40
2023-08-12T05:58:32.683Z,43.02
2023-08-12T06:01:01.431Z,42.96
2023-08-12T06:03:31.186Z,43.02
2023-08-12T06:05:59.953Z,43.83
2023-08-12T06:08:28.919Z,44.70
2023-08-12T06:10:57.906Z,44.99
2023-08-12T06:13:26.738Z,46.28
2023-08-12T06:15:56.762Z,47.76
2023-08-12T06:18:26.019Z,48.06
2023-08-12T06:20:54.742Z,47.54
2023-08-12T06:23:25.346Z,48.04
2023-08-12T06:25:56.422Z,48.26
2023-08-12T06:28:25.239Z,49.34
2023-08-12T06:30:54.147Z,49.72
2023-08-12T06:33:24.509Z,50.28
2023-08-12T06:35:53.294Z,50.09
2023-08-12T06:38:22.045Z,49.29
2023-08-12T06:40:51.064Z,49.93
2023-08-12T06:43:19.767Z,49.67
2023-08-12T06:45:48.468Z,49.79
2023-08-12T06:48:18.214Z,49.99
2023-08-12T06:50:48.271Z,49.27
2023-08-12T06:53:17.158Z,49.08
2023-08-12T06:55:46.870Z,48.40
2023-08-12T06:58:15.650Z,48.18
2023-08-12T07:00:44.635Z,48.70
2023-08-12T07:03:13.595Z,48.07
2023-08-12T07:05:42.363Z,47.54
2023-08-12T07:08:12.801Z,46.80
2023-08-12T07:10:41.698Z,47.41
2023-08-12T07:13:10.604Z,46.91
2023-08-12T07:15:39.603Z,46.21
2023-08-12T07:18:08.384Z,46.83
2023-08-12T07:20:37.214Z,47.04
2023-08-12T07:23:08.110Z,46.84
2023-08-12T07:25:38.209Z,45.97
2023-08-12T07:28:08.095Z,46.35
2023-08-12T07:30:37.452Z,45.82
2023-08-12T07:33:06.849Z,45.53
2023-08-12T07:35:36.423Z,46.13
2023-08-12T07:38:05.536Z,45.75
2023-08-12T07:40:34.233Z,46.07
2023-08-12T07:43:04.908Z,45.44
2023-08-12T07:45:33.650Z,45.20
2023-08-12T07:48:02.316Z,44.77
2023-08-12T07:50:31.955Z,44.64
2023-08-12T07:53:00.648Z,44.02
2023-08-12T07:55:30.774Z,43.58
2023-08-12T07:57:59.778Z,43.89
2023-08-12T08:00:29.822Z,43.66
2023-08-12T08:02:58.896Z,43.05
2023-08-12T08:05:27.726Z,43.37
2023-08-12T08:07:56.372Z,44.25
2023-08-12T08:10:25.638Z,43.67
2023-08-12T08:12:54.414Z,43.93
2023-08-12T08:15:23.102Z,42.60
2023-08-12T08:17:55.291Z,43.11
2023-08-12T08:20:24.466Z,43.14
2023-08-12T08:22:56.327Z,42.75
2023-08-12T08:25:25.201Z,42.38
2023-08-12T08:27:55.522Z,43.00
2023-08-12T08:30:25.413Z,42.87
2023-08-12T08:32:55.839Z,42.63
2023-08-12T08:35:24.678Z,42.25
2023-08-12T08:37:53.508Z,42.37
2023-08-12T08:40:22.525Z,42.22
2023-08-12T08:42:54.702Z,41.32
2023-08-12T08:45:24.568Z,40.45
2023-08-12T08:47:55.251Z,41.09
2023-08-12T08:50:24.558Z,41.24
2023-08-12T08:52:53.818Z,42.59
2023-08-12T08:55:23.018Z,41.49
2023-08-12T08:57:52.417Z,41.92
2023-08-12T09:00:21.515Z,42.61
2023-08-12T09:02:50.490Z,40.91
2023-08-12T09:05:22.526Z,41.05
2023-08-12T09:07:52.319Z,41.87
2023-08-12T09:10:23.249Z,41.57
2023-08-12T09:12:53.880Z,41.05
2023-08-12T09:15:22.972Z,40.37
2023-08-12T09:17:51.676Z,41.49
2023-08-12T09:20:21.889Z,40.16
2023-08-12T09:22:59.747Z,40.19
2023-08-12T09:25:30.468Z,39.85
2023-08-12T09:28:01.695Z,40.42
2023-08-12T09:30:33.479Z,38.73
2023-08-12T09:33:04.783Z,39.04
2023-08-12T09:35:36.458Z,37.79
2023-08-12T09:38:06.425Z,38.72
2023-08-12T09:40:36.652Z,40.05
2023-08-12T09:43:06.419Z,37.35
2023-08-12T09:45:36.471Z,38.27
2023-08-12T09:48:06.912Z,38.01
2023-08-12T09:50:40.327Z,37.70
2023-08-12T09:53:09.421Z,39.09
2023-08-12T09:55:38.598Z,37.72
2023-08-12T09:58:09.202Z,36.90
2023-08-12T10:00:38.319Z,35.42
2023-08-12T10:03:07.743Z,34.98
2023-08-12T10:05:37.848Z,35.60
2023-08-12T10:08:07.062Z,36.26
2023-08-12T10:10:38.012Z,34.97
2023-08-12T10:13:08.629Z,35.17
2023-08-12T10:15:39.134Z,34.88
2023-08-12T10:18:11.521Z,32.14
2023-08-12T10:20:42.642Z,33.99
2023-08-12T10:23:19.306Z,34.58
2023-08-12T10:25:49.601Z,32.52
2023-08-12T10:28:20.957Z,33.34
2023-08-12T10:30:50.139Z,33.95
2023-08-12T10:33:19.698Z,34.59
2023-08-12T10:35:51.203Z,35.44
2023-08-12T10:38:21.695Z,34.23
2023-08-12T10:40:50.539Z,35.28
2023-08-12T10:43:21.386Z,34.36
2023-08-12T10:45:51.730Z,34.72
2023-08-12T10:48:23.240Z,35.63
2023-08-12T10:51:01.004Z,34.28
2023-08-12T10:53:32.785Z,34.39
2023-08-12T10:56:03.623Z,33.59
2023-08-12T10:58:46.541Z,34.99
2023-08-12T11:01:19.594Z,33.78
2023-08-12T11:03:49.884Z,33.64
2023-08-12T11:06:21.722Z,35.85
2023-08-12T11:08:54.716Z,34.24
2023-08-12T11:11:24.933Z,34.46
2023-08-12T11:13:55.642Z,33.12
2023-08-12T11:16:34.207Z,34.46
2023-08-12T11:19:02.993Z,34.48
2023-08-12T11:21:33.344Z,32.61
2023-08-12T11:24:02.355Z,33.04
2023-08-12T11:26:31.130Z,32.11
2023-08-12T11:29:00.203Z,31.52
2023-08-12T11:31:29.469Z,32.94
2023-08-12T11:33:58.256Z,31.00
2023-08-12T11:36:27.522Z,31.13
2023-08-12T11:38:58.589Z,31.90
2023-08-12T11:41:29.283Z,32.26
2023-08-12T11:43:59.230Z,31.91
2023-08-12T11:46:28.324Z,31.08
2023-08-12T11:48:57.130Z,29.96
2023-08-12T11:51:25.932Z,30.35
2023-08-12T11:53:54.928Z,30.71
2023-08-12T11:56:25.275Z,30.57
2023-08-12T11:58:54.393Z,27.92
2023-08-12T12:01:24.640Z,27.72
2023-08-12T12:03:54.224Z,28.04
2023-08-12T12:06:31.727Z,29.39
2023-08-12T12:09:06.149Z,27.99
2023-08-12T12:11:36.274Z,28.88
2023-08-12T12:14:06.244Z,28.50
2023-08-12T12:16:42.227Z,27.62
2023-08-12T12:19:12.342Z,27.61
2023-08-12T12:21:42.693Z,29.18
2023-08-12T12:24:11.945Z,29.41
2023-08-12T12:26:42.366Z,28.20
2023-08-12T12:29:12.841Z,28.56
2023-08-12T12:31:42.105Z,29.65
2023-08-12T12:34:11.563Z,28.43
2023-08-12T12:36:41.763Z,28.98
2023-08-12T12:39:10.475Z,27.85
2023-08-12T12:41:39.484Z,29.16
2023-08-12T12:44:09.640Z,28.43
2023-08-12T12:46:38.335Z,27.20
2023-08-12T12:49:07.393Z,27.94
2023-08-12T12:51:36.216Z,28.37
2023-08-12T12:54:05.643Z,26.25
2023-08-12T12:56:34.642Z,28.00
2023-08-12T12:59:03.307Z,27.50
2023-08-12T13:01:33.454Z,26.98
2023-08-12T13:04:02.245Z,28.44
2023-08-12T13:06:31.106Z,26.53
2023-08-12T13:08:59.891Z,26.36
2023-08-12T13:11:28.934Z,26.15
2023-08-12T13:13:57.705Z,26.35
2023-08-12T13:16:26.578Z,26.25
2023-08-12T13:18:57.113Z,25.82
2023-08-12T13:21:28.392Z,26.38
2023-08-12T13:23:57.362Z,26.65
2023-08-12T13:26:26.123Z,26.09
2023-08-12T13:28:55.586Z,26.94
2023-08-12T13:31:24.682Z,25.90
2023-08-12T13:33:53.505Z,25.25
2023-08-12T13:36:23.588Z,25.00
2023-08-12T13:38:52.355Z,24.93
2023-08-12T13:41:21.084Z,24.18
2023-08-12T13:43:49.756Z,23.39
2023-08-12T13:46:18.728Z,23.53
2023-08-12T13:48:47.487Z,23.80
2023-08-12T13:51:16.216Z,24.67
2023-08-12T13:53:47.011Z,24.66
2023-08-12T13:56:17.243Z,24.06
2023-08-12T13:58:46.200Z,24.42
2023-08-12T14:01:14.984Z,25.39
2023-08-12T14:03:44.096Z,25.03
2023-08-12T14:06:16.639Z,25.62
2023-08-12T14:08:47.082Z,25.24
2023-08-12T14:11:15.882Z,25.73
2023-08-12T14:13:44.860Z,25.11
2023-08-12T14:16:13.684Z,25.09
2023-08-12T14:18:42.443Z,24.77
2023-08-12T14:21:11.607Z,25.62
2023-08-12T14:23:40.311Z,24.80
2023-08-12T14:26:10.302Z,25.46
2023-08-12T14:28:39.296Z,25.14
2023-08-12T14:31:08.001Z,24.44
2023-08-12T14:33:38.527Z,25.20
2023-08-12T14:36:08.682Z,25.17
2023-08-12T14:38:37.382Z,24.93
2023-08-12T14:41:06.036Z,24.77
2023-08-12T14:43:38.050Z,25.40
2023-08-12T14:46:06.885Z,25.13
2023-08-12T14:48:35.963Z,24.38
2023-08-12T14:51:06.244Z,24.05
2023-08-12T14:53:34.978Z,24.12
2023-08-12T14:56:04.042Z,23.46
2023-08-12T14:58:32.677Z,22.70
2023-08-12T15:01:04.158Z,24.46
2023-08-12T15:03:33.305Z,22.79
2023-08-12T15:06:02.668Z,23.59
2023-08-12T15:08:32.212Z,22.83
2023-08-12T15:11:01.203Z,21.40
2023-08-12T15:13:29.920Z,22.25
2023-08-12T15:15:58.671Z,21.70
2023-08-12T15:18:29.048Z,23.21
2023-08-12T15:20:57.676Z,23.02
2023-08-12T15:23:26.426Z,22.63
2023-08-12T15:25:55.441Z,22.72
2023-08-12T15:28:24.270Z,23.23
2023-08-12T15:30:52.998Z,23.25
2023-08-12T15:33:22.009Z,24.45
2023-08-12T15:35:54.545Z,25.90
2023-08-12T15:38:23.518Z,26.95
2023-08-12T15:40:52.284Z,26.50
2023-08-12T15:43:21.048Z,26.28
2023-08-12T15:45:50.049Z,27.09
2023-08-12T15:48:18.723Z,29.58
2023-08-12T15:50:47.697Z,28.47
2023-08-12T15:53:18.149Z,27.62
2023-08-12T15:55:46.840Z,26.05
2023-08-12T15:58:17.028Z,28.51
2023-08-12T16:00:45.842Z,28.76
2023-08-12T16:03:14.831Z,27.05
2023-08-12T16:05:43.751Z,27.13
2023-08-12T16:08:12.492Z,27.35
2023-08-12T16:10:42.869Z,27.64
2023-08-12T16:13:11.679Z,28.57
2023-08-12T16:15:40.428Z,27.88
2023-08-12T16:18:09.568Z,28.55
2023-08-12T16:20:40.980Z,29.61
2023-08-12T16:23:09.991Z,29.68
2023-08-12T16:25:38.704Z,29.02
2023-08-12T16:28:08.735Z,29.21
2023-08-12T16:30:37.922Z,30.98
2023-08-12T16:33:06.967Z,29.14
2023-08-12T16:35:36.043Z,30.10
2023-08-12T16:38:05.236Z,29.87
2023-08-12T16:40:33.993Z,29.75
2023-08-12T16:43:02.699Z,30.99
2023-08-12T16:45:33.110Z,30.87
2023-08-12T16:48:01.969Z,31.95
2023-08-12T16:50:30.954Z,31.88
2023-08-12T16:52:59.607Z,34.34
2023-08-12T16:55:28.285Z,34.04
2023-08-12T16:57:57.291Z,35.26
2023-08-12T17:00:25.963Z,35.88
2023-08-12T17:02:56.168Z,36.03
2023-08-12T17:05:27.496Z,35.11
2023-08-12T17:07:56.281Z,36.71
2023-08-12T17:10:25.206Z,36.59
2023-08-12T17:12:55.428Z,37.09
2023-08-12T17:15:24.379Z,37.59
2023-08-12T17:17:53.528Z,38.02
2023-08-12T17:20:23.641Z,38.57
2023-08-12T17:22:52.482Z,38.48
2023-08-12T17:25:21.610Z,39.56
2023-08-12T17:27:52.267Z,39.87
2023-08-12T17:30:21.285Z,39.64
2023-08-12T17:32:50.963Z,40.67
2023-08-12T17:35:19.776Z,41.82
2023-08-12T17:37:50.365Z,42.33
2023-08-12T17:40:23.393Z,42.87
2023-08-12T17:42:52.412Z,43.51
2023-08-12T17:45:21.114Z,44.56
2023-08-12T17:47:57.116Z,44.88
2023-08-12T17:50:26.384Z,45.18
2023-08-12T17:52:56.651Z,45.57
2023-08-12T17:55:25.336Z,45.44
2023-08-12T17:57:54.519Z,45.18
2023-08-12T18:00:24.465Z,44.79
2023-08-12T18:02:53.497Z,45.03
2023-08-12T18:05:22.225Z,44.67
2023-08-12T18:07:50.976Z,44.27
2023-08-12T18:10:21.283Z,44.41
2023-08-12T18:12:49.954Z,45.15
2023-08-12T18:15:18.654Z,45.25
2023-08-12T18:17:47.758Z,45.27
2023-08-12T18:20:16.897Z,44.87
2023-08-12T18:22:45.677Z,45.47
2023-08-12T18:25:14.765Z,45.49
2023-08-12T18:27:44.836Z,45.36
2023-08-12T18:30:14.629Z,45.61
2023-08-12T18:32:43.376Z,45.78
2023-08-12T18:35:12.683Z,45.94
2023-08-12T18:37:42.421Z,46.33
2023-08-12T18:40:12.793Z,46.24
2023-08-12T18:42:42.015Z,45.77
2023-08-12T18:45:12.793Z,47.41
2023-08-12T18:47:42.264Z,47.75
2023-08-12T18:50:12.051Z,48.04
2023-08-12T18:52:41.412Z,48.58
2023-08-12T18:55:11.516Z,48.45
2023-08-12T18:57:40.570Z,49.07
2023-08-12T19:00:10.634Z,49.64
2023-08-12T19:02:40.816Z,50.46
2023-08-12T19:05:10.557Z,50.82
2023-08-12T19:07:39.461Z,50.43
2023-08-12T19:10:10.116Z,50.44
2023-08-12T19:12:39.002Z,50.80
2023-08-12T19:15:09.344Z,51.01
2023-08-12T19:17:38.173Z,51.51
2023-08-12T19:20:09.876Z,51.38
2023-08-12T19:22:38.584Z,51.67
2023-08-12T19:25:08.046Z,51.94
2023-08-12T19:27:36.743Z,51.89
2023-08-12T19:30:06.101Z,52.22
2023-08-12T19:32:37.770Z,52.48
2023-08-12T19:35:12.577Z,52.56
2023-08-12T19:37:44.614Z,52.53
2023-08-12T19:40:16.757Z,52.31
2023-08-12T19:42:47.438Z,52.24
2023-08-12T19:45:16.822Z,52.26
2023-08-12T19:47:47.128Z,52.48
2023-08-12T19:50:17.747Z,52.32
2023-08-12T19:52:47.742Z,52.68
2023-08-12T19:55:17.201Z,52.62
2023-08-12T19:57:47.670Z,53.07
2023-08-12T20:00:17.956Z,53.45
2023-08-12T20:02:48.731Z,53.35
2023-08-12T20:05:20.660Z,53.90
2023-08-12T20:07:51.769Z,53.93
2023-08-12T20:10:22.358Z,53.90
2023-08-12T20:12:54.409Z,53.96
2023-08-12T20:15:23.921Z,54.24
2023-08-12T20:17:54.316Z,54.03
2023-08-12T20:20:29.485Z,53.79
2023-08-12T20:23:06.332Z,54.04
2023-08-12T20:25:38.353Z,54.79
2023-08-12T20:28:08.802Z,54.94
2023-08-12T20:30:39.144Z,54.93
2023-08-12T20:33:08.271Z,55.18
2023-08-12T20:35:39.098Z,55.13
2023-08-12T20:38:10.467Z,55.16
2023-08-12T20:40:40.873Z,54.77
2023-08-12T20:43:11.315Z,54.95
2023-08-12T20:45:40.868Z,55.00
2023-08-12T20:48:10.580Z,54.95
2023-08-12T20:50:42.846Z,55.04
2023-08-12T20:53:12.656Z,55.04
2023-08-12T20:55:42.358Z,55.65
2023-08-12T20:58:11.643Z,55.54
2023-08-12T21:00:40.853Z,56.00
2023-08-12T21:03:10.428Z,56.04
2023-08-12T21:05:39.280Z,55.59
2023-08-12T21:08:09.716Z,55.24
2023-08-12T21:10:38.667Z,55.83
2023-08-12T21:13:10.480Z,55.65
2023-08-12T21:15:39.439Z,55.54
2023-08-12T21:18:08.428Z,56.44
2023-08-12T21:20:37.412Z,56.29
2023-08-12T21:23:06.549Z,56.54
2023-08-12T21:25:36.635Z,56.40
2023-08-12T21:28:05.929Z,56.44
2023-08-12T21:30:35.013Z,56.94
2023-08-12T21:33:03.938Z,56.67
2023-08-12T21:35:32.801Z,56.54
2023-08-12T21:38:01.982Z,56.71
2023-08-12T21:40:30.975Z,56.85
2023-08-12T21:43:00.968Z,56.78
2023-08-12T21:45:31.337Z,56.45
2023-08-12T21:48:00.137Z,56.76
2023-08-12T21:50:29.176Z,57.10
2023-08-12T21:52:58.167Z,57.30
2023-08-12T21:55:26.834Z,56.77
2023-08-12T21:57:58.266Z,56.90
2023-08-12T22:00:28.859Z,56.79
2023-08-12T22:02:58.152Z,56.85
2023-08-12T22:05:26.817Z,56.98
2023-08-12T22:07:55.628Z,56.85
2023-08-12T22:10:24.587Z,57.90
2023-08-12T22:12:53.282Z,57.00
2023-08-12T22:15:22.187Z,57.43
2023-08-12T22:17:53.531Z,57.93
2023-08-12T22:20:22.135Z,57.59
2023-08-12T22:22:50.969Z,57.98
2023-08-12T22:25:19.665Z,57.61
2023-08-12T22:27:48.399Z,57.72
2023-08-12T22:30:17.780Z,57.98
2023-08-12T22:32:46.578Z,57.64
2023-08-12T22:35:16.687Z,57.77
2023-08-12T22:37:45.719Z,57.61
2023-08-12T22:40:14.507Z,57.56
2023-08-12T22:42:46.523Z,57.32
2023-08-12T22:45:15.489Z,58.10
2023-08-12T22:47:44.263Z,58.51
2023-08-12T22:50:13.495Z,58.57
2023-08-12T22:52:44.076Z,58.51
2023-08-12T22:55:13.310Z,58.98
2023-08-12T22:57:42.414Z,57.97
2023-08-12T23:00:11.977Z,57.58
2023-08-12T23:02:40.826Z,58.29
2023-08-12T23:05:09.969Z,58.24
2023-08-12T23:07:38.715Z,59.12
2023-08-12T23:10:10.550Z,58.41
2023-08-12T23:12:39.566Z,58.36
2023-08-12T23:15:09.462Z,58.79
2023-08-12T23:17:38.233Z,58.12
2023-08-12T23:20:08.704Z,58.79
2023-08-12T23:22:37.383Z,58.98
2023-08-12T23:25:08.817Z,58.75
2023-08-12T23:27:37.918Z,58.71
2023-08-12T23:30:10.124Z,59.24
2023-08-12T23:32:39.100Z,59.01
2023-08-12T23:35:08.752Z,59.12
2023-08-12T23:37:37.379Z,59.56
2023-08-12T23:40:08.920Z,59.00
2023-08-12T23:42:37.698Z,59.59
2023-08-12T23:45:07.868Z,59.48
2023-08-12T23:47:36.804Z,59.22
2023-08-12T23:50:06.898Z,58.75
2023-08-12T23:52:35.593Z,59.21
2023-08-12T23:55:04.606Z,59.53
2023-08-12T23:57:34.932Z,59.84
